Time;durP1;ratioP1;P1;durP2;ratioP2;P2;SDS_P1;SDS_P2;PMS_P1;PMS_P2;Temp;Humidity;BMP_temperature;BMP_pressure;BME280_temperature;BME280_humidity;BME280_pressure;Samples;Min_cycle;Max_cycle;Signal;HPM_P1;HPM_P2
2022/11/18 00:01:26;;;;;;;30.42;14.93;;;;;;;2.62;72.03;97142.69;5092220;28;20475;-69
2022/11/18 00:03:52;;;;;;;24.13;13.40;;;;;;;2.64;72.56;97137.81;5091004;28;20444;-69
2022/11/18 00:06:23;;;;;;;29.30;16.08;;;;;;;2.63;72.76;97145.16;5089844;28;20039;-69
2022/11/18 00:08:48;;;;;;;23.58;12.55;;;;;;;2.63;72.18;97145.16;5072740;28;20028;-69
2022/11/18 00:14:17;;;;;;;21.50;12.45;;;;;;;2.64;72.76;97141.34;5090145;28;20384;-69
2022/11/18 00:14:18;;;;;;;131.18;46.00;;;;;;;2.67;72.38;97145.38;5091006;28;20039;-70
2022/11/18 00:16:44;;;;;;;67.97;26.35;;;;;;;2.70;72.48;97150.25;5091718;28;20031;-70
2022/11/18 00:19:10;;;;;;;166.52;49.28;;;;;;;2.72;71.78;97164.31;5091671;28;20534;-70
2022/11/18 00:21:35;;;;;;;46.83;18.98;;;;;;;2.74;72.06;97170.28;5092030;28;20066;-69
2022/11/18 00:24:00;;;;;;;51.65;21.60;;;;;;;2.76;72.04;97178.09;5091341;28;20035;-69
2022/11/18 00:26:26;;;;;;;60.15;23.02;;;;;;;2.78;72.79;97173.22;5072945;28;20038;-69
2022/11/18 00:28:51;;;;;;;140.48;43.55;;;;;;;2.79;72.66;97167.53;5091766;28;20024;-69
2022/11/18 00:31:17;;;;;;;71.05;24.70;;;;;;;2.81;72.47;97175.38;5091899;28;20376;-70
2022/11/18 00:33:42;;;;;;;38.00;16.70;;;;;;;2.82;72.69;97175.13;5091459;28;20089;-70
2022/11/18 00:36:10;;;;;;;108.55;38.45;;;;;;;2.83;72.15;97171.31;5055169;28;20028;-70
2022/11/18 00:38:36;;;;;;;73.80;29.20;;;;;;;2.86;72.02;97169.94;5090348;28;20469;-69
2022/11/18 00:41:05;;;;;;;108.25;43.60;;;;;;;2.85;71.82;97168.31;5091560;28;20476;-69
2022/11/18 00:43:31;;;;;;;54.42;23.58;;;;;;;2.87;72.09;97168.84;5089903;28;20054;-70
2022/11/18 00:45:57;;;;;;;62.28;28.05;;;;;;;2.89;71.70;97155.84;5089640;28;20388;-69
2022/11/18 00:48:23;;;;;;;73.95;33.28;;;;;;;2.92;72.01;97154.47;5089670;28;20032;-69
2022/11/18 00:50:50;;;;;;;49.88;24.00;;;;;;;2.93;72.43;97158.81;5090219;28;20055;-68
2022/11/18 00:53:16;;;;;;;59.40;27.85;;;;;;;2.95;71.74;97156.63;5089663;28;20019;-69
2022/11/18 00:55:42;;;;;;;38.90;19.13;;;;;;;2.94;72.69;97150.41;5089982;28;20063;-68
2022/11/18 00:58:08;;;;;;;36.20;17.90;;;;;;;2.93;72.25;97150.69;5088804;28;20047;-68
2022/11/18 01:00:34;;;;;;;32.47;16.67;;;;;;;2.97;72.05;97149.03;5090068;28;20012;-69
2022/11/18 01:02:59;;;;;;;22.60;13.02;;;;;;;2.94;71.93;97144.16;5090165;28;20066;-69
2022/11/18 01:05:24;;;;;;;24.38;13.45;;;;;;;2.92;71.99;97136.34;5089955;28;20447;-69
2022/11/18 01:07:50;;;;;;;31.80;18.63;;;;;;;2.91;71.82;97134.72;5071590;28;20024;-68
2022/11/18 01:10:16;;;;;;;26.55;16.45;;;;;;;2.90;72.03;97134.97;5090614;28;20039;-69
2022/11/18 01:15:25;;;;;;;21.17;13.05;;;;;;;2.87;72.60;97136.38;5090849;28;20071;-68
2022/11/18 01:17:50;;;;;;;24.08;13.63;;;;;;;2.86;72.29;97131.22;5090238;28;20059;-67
2022/11/18 01:20:16;;;;;;;25.25;14.95;;;;;;;2.84;71.81;97123.38;5090701;28;20024;-68
2022/11/18 01:22:42;;;;;;;26.48;15.52;;;;;;;2.84;72.18;97117.97;5090573;28;20049;-67
2022/11/18 01:25:07;;;;;;;25.63;13.73;;;;;;;2.84;71.97;97112.53;5090571;28;20113;-68
2022/11/18 01:27:33;;;;;;;23.00;13.23;;;;;;;2.84;72.46;97112.53;5089622;28;20050;-67
2022/11/18 01:29:58;;;;;;;21.45;13.23;;;;;;;2.81;72.74;97092.25;5090244;28;20024;-67
2022/11/18 01:32:24;;;;;;;23.90;15.13;;;;;;;2.81;72.78;97086.84;5090123;28;20027;-67
2022/11/18 01:34:49;;;;;;;24.20;14.00;;;;;;;2.78;72.51;97095.53;5089439;28;20107;-68
2022/11/18 01:37:14;;;;;;;20.58;11.82;;;;;;;2.77;72.51;97095.78;5089527;28;20069;-67
2022/11/18 01:39:40;;;;;;;19.70;11.27;;;;;;;2.74;71.99;97099.88;5088301;28;20012;-67
2022/11/18 01:42:13;;;;;;;20.98;11.77;;;;;;;2.71;72.22;97091.50;5089932;28;20028;-68
2022/11/18 01:45:08;;;;;;;18.55;10.68;;;;;;;2.63;72.68;97091.00;5090020;28;20119;-69
2022/11/18 01:47:46;;;;;;;20.30;11.32;;;;;;;2.59;72.13;97084.53;5090650;28;20055;-67
2022/11/18 01:50:15;;;;;;;21.42;11.35;;;;;;;2.54;72.61;97092.66;5088383;28;20353;-68
2022/11/18 01:52:41;;;;;;;20.98;12.90;;;;;;;2.51;72.07;97087.81;5088998;28;20047;-68
2022/11/18 01:55:14;;;;;;;19.35;10.85;;;;;;;2.48;72.41;97085.66;5088883;28;20032;-68
2022/11/18 01:57:41;;;;;;;23.67;14.07;;;;;;;2.47;72.39;97075.91;5089602;28;20039;-68
2022/11/18 02:00:07;;;;;;;20.83;12.20;;;;;;;2.45;72.68;97084.28;5089707;28;20028;-68
2022/11/18 02:02:35;;;;;;;18.10;10.80;;;;;;;2.44;72.44;97085.41;5090248;28;20027;-68
2022/11/18 02:05:03;;;;;;;23.25;13.02;;;;;;;2.46;72.67;97091.31;5089550;28;20618;-68
2022/11/18 02:07:28;;;;;;;18.75;11.52;;;;;;;2.50;72.18;97086.19;5089132;28;20036;-67
2022/11/18 02:09:56;;;;;;;18.63;10.23;;;;;;;2.50;72.68;97097.00;5089080;28;20816;-68
2022/11/18 02:12:22;;;;;;;17.50;11.18;;;;;;;2.49;72.55;97101.59;5090390;28;20020;-68
2022/11/18 02:14:48;;;;;;;18.58;10.45;;;;;;;2.50;72.62;97105.94;5090039;28;20058;-68
2022/11/18 02:17:39;;;;;;;20.40;10.90;;;;;;;2.46;72.33;97104.06;5089868;28;20730;-67
2022/11/18 02:20:07;;;;;;;18.77;10.90;;;;;;;2.47;72.63;97101.06;5089860;28;20034;-68
2022/11/18 02:22:51;;;;;;;19.17;10.02;;;;;;;2.46;72.56;97104.06;5090042;28;20476;-68
2022/11/18 02:25:45;;;;;;;17.48;10.52;;;;;;;2.44;72.23;97103.53;5090026;28;20036;-67
2022/11/18 02:28:53;;;;;;;19.58;11.65;;;;;;;2.43;72.30;97105.44;5054021;28;20036;-68
2022/11/18 02:31:36;;;;;;;18.15;11.15;;;;;;;2.46;72.75;97106.75;5089226;28;20032;-67
2022/11/18 02:34:42;;;;;;;19.30;10.43;;;;;;;2.43;72.49;97118.97;5089537;28;20438;-68
2022/11/18 02:37:20;;;;;;;19.17;11.02;;;;;;;2.46;72.44;97109.47;5085443;28;20126;-67
2022/11/18 02:39:59;;;;;;;17.38;10.48;;;;;;;2.46;72.72;97106.75;5088584;28;20829;-68
2022/11/18 02:42:29;;;;;;;18.95;10.27;;;;;;;2.46;73.26;97101.34;5089542;28;20048;-68
2022/11/18 02:45:01;;;;;;;18.15;10.50;;;;;;;2.46;72.35;97102.16;5089473;28;20048;-68
2022/11/18 02:47:29;;;;;;;20.17;10.77;;;;;;;2.48;72.98;97097.28;5071336;28;20399;-68
2022/11/18 02:49:59;;;;;;;18.15;10.68;;;;;;;2.49;73.39;97082.66;5088584;28;20051;-68
2022/11/18 02:52:25;;;;;;;;;;;;;;;2.53;73.35;97091.03;5090023;28;20028;-67
2022/11/18 02:54:53;;;;;;;18.25;10.35;;;;;;;2.55;72.58;97088.88;5089688;28;20384;-67
2022/11/18 02:57:20;;;;;;;16.95;10.00;;;;;;;2.54;72.59;97092.66;5071088;28;20028;-68
2022/11/18 02:59:46;;;;;;;20.23;10.68;;;;;;;2.54;72.83;97098.06;5088334;28;20495;-67
2022/11/18 03:02:15;;;;;;;17.92;10.35;;;;;;;2.54;73.03;97092.66;5088639;28;20024;-68
2022/11/18 03:04:41;;;;;;;21.48;10.82;;;;;;;2.54;72.58;97098.06;5089051;28;20127;-68
2022/11/18 03:07:09;;;;;;;21.70;10.75;;;;;;;2.53;72.58;97099.97;5088922;28;20039;-68
2022/11/18 03:09:43;;;;;;;16.52;9.73;;;;;;;2.54;72.71;97106.19;5088268;28;20423;-68
2022/11/18 03:12:48;;;;;;;18.92;10.43;;;;;;;2.55;72.79;97107.00;5072264;28;20106;-68
2022/11/18 03:15:41;;;;;;;18.40;9.95;;;;;;;2.52;73.26;97095.63;5088779;28;20411;-69
2022/11/18 03:18:18;;;;;;;19.17;11.38;;;;;;;2.53;72.63;97094.53;5092375;28;20547;-68
2022/11/18 03:20:50;;;;;;;19.33;10.75;;;;;;;2.55;73.30;97094.28;5092235;28;20027;-67
2022/11/18 03:23:18;;;;;;;18.60;10.60;;;;;;;2.57;72.66;97084.00;5092113;28;20028;-67
2022/11/18 03:25:53;;;;;;;15.90;9.75;;;;;;;2.60;73.16;97074.50;5092807;28;20030;-68
2022/11/18 03:28:38;;;;;;;19.25;10.27;;;;;;;2.60;72.51;97067.19;5092448;28;20399;-68
2022/11/18 03:31:17;;;;;;;18.50;10.65;;;;;;;2.61;72.91;97054.47;5090768;28;20036;-69
2022/11/18 03:33:49;;;;;;;19.38;10.95;;;;;;;2.59;73.00;97054.75;5093012;28;20032;-69
2022/11/18 03:36:18;;;;;;;16.27;10.68;;;;;;;2.58;72.27;97066.66;5092996;28;20036;-66
2022/11/18 03:38:53;;;;;;;17.15;9.75;;;;;;;2.58;72.30;97053.13;5092424;28;20026;-69
2022/11/18 03:41:21;;;;;;;15.20;9.68;;;;;;;2.58;73.04;97052.31;5092376;28;20046;-69
2022/11/18 03:43:53;;;;;;;19.83;10.77;;;;;;;2.59;72.81;97043.94;5090485;28;20141;-69
2022/11/18 03:46:30;;;;;;;16.33;9.85;;;;;;;2.58;72.39;97039.59;5111788;28;20027;-69
2022/11/18 03:48:58;;;;;;;19.27;10.85;;;;;;;2.60;72.33;97039.31;5111226;28;20553;-70
2022/11/18 03:51:35;;;;;;;19.05;10.23;;;;;;;2.59;72.67;97040.41;5112278;28;20026;-69
2022/11/18 03:54:15;;;;;;;19.13;10.80;;;;;;;2.57;72.57;97035.28;5091258;28;20100;-69
2022/11/18 03:56:44;;;;;;;18.20;10.57;;;;;;;2.57;73.02;97039.88;5090677;28;20411;-69
2022/11/18 03:59:17;;;;;;;19.85;10.55;;;;;;;2.56;72.30;97033.66;5091552;28;20012;-70
2022/11/18 04:01:52;;;;;;;21.15;11.13;;;;;;;2.54;72.35;97033.13;5090669;28;20654;-69
2022/11/18 04:04:19;;;;;;;17.85;10.75;;;;;;;2.52;72.41;97022.56;5090843;28;20020;-69
2022/11/18 04:06:57;;;;;;;18.38;11.05;;;;;;;2.52;72.77;97024.47;5090866;28;20043;-68
2022/11/18 04:09:28;;;;;;;18.13;10.25;;;;;;;2.53;72.44;97015.25;5070636;28;20016;-69
2022/11/18 04:12:03;;;;;;;18.77;10.73;;;;;;;2.51;72.38;97025.56;5089931;28;20474;-69
2022/11/18 04:14:32;;;;;;;17.02;9.63;;;;;;;2.50;73.13;97032.84;5088912;28;20016;-69
2022/11/18 04:16:58;;;;;;;20.08;11.57;;;;;;;2.47;72.52;97041.53;5089124;28;20388;-69
2022/11/18 04:19:23;;;;;;;18.35;11.13;;;;;;;2.46;72.78;97041.81;5073308;28;20028;-69
2022/11/18 04:21:49;;;;;;;18.20;10.43;;;;;;;2.44;72.24;97044.81;5090179;28;20032;-69
2022/11/18 04:24:15;;;;;;;22.33;11.77;;;;;;;2.42;72.68;97043.47;5074186;28;20024;-69
2022/11/18 04:26:40;;;;;;;18.05;10.25;;;;;;;2.41;72.49;97049.97;5092339;28;20050;-69
2022/11/18 04:29:06;;;;;;;19.80;11.05;;;;;;;2.39;72.55;97044.84;5091415;28;20062;-69
2022/11/18 04:31:31;;;;;;;20.33;11.50;;;;;;;2.37;72.38;97041.59;5074462;28;20040;-68
2022/11/18 04:33:56;;;;;;;18.45;10.35;;;;;;;2.35;72.73;97039.16;5094142;28;20024;-68
2022/11/18 04:36:22;;;;;;;18.70;9.57;;;;;;;2.33;72.25;97032.41;5093695;28;20026;-68
2022/11/18 04:38:47;;;;;;;17.45;10.25;;;;;;;2.33;72.19;97041.31;5091024;28;20040;-68
2022/11/18 04:41:13;;;;;;;17.60;9.77;;;;;;;2.31;72.80;97043.50;5091237;28;20031;-68
2022/11/18 04:43:38;;;;;;;18.73;9.45;;;;;;;2.30;72.80;97041.09;5090468;28;20044;-68
2022/11/18 04:46:04;;;;;;;17.50;10.00;;;;;;;2.27;72.95;97045.13;5091776;28;20472;-69
2022/11/18 04:48:29;;;;;;;17.02;9.18;;;;;;;2.25;72.71;97044.59;5091614;28;20028;-68
2022/11/18 04:51:02;;;;;;;17.20;10.00;;;;;;;2.21;72.53;97032.75;5092274;28;20081;-68
2022/11/18 04:53:28;;;;;;;17.75;9.75;;;;;;;2.18;72.61;97039.50;5090350;28;20488;-68
2022/11/18 04:55:53;;;;;;;18.50;9.75;;;;;;;2.18;73.05;97044.13;5091681;28;20070;-68
2022/11/18 04:58:18;;;;;;;16.25;10.13;;;;;;;2.19;73.24;97043.03;5091786;28;20079;-68
2022/11/18 05:00:44;;;;;;;18.17;11.57;;;;;;;2.19;72.67;97040.31;5090208;28;20020;-69
2022/11/18 05:03:09;;;;;;;16.70;9.35;;;;;;;2.18;72.85;97042.19;5090794;28;20073;-69
2022/11/18 05:05:34;;;;;;;18.55;9.82;;;;;;;2.17;72.87;97043.28;5090006;28;20085;-68
2022/11/18 05:08:00;;;;;;;19.27;10.23;;;;;;;2.18;73.25;97046.81;5090659;28;20088;-68
2022/11/18 05:10:25;;;;;;;16.25;9.25;;;;;;;2.18;72.79;97033.28;5090948;28;20056;-68
2022/11/18 05:12:51;;;;;;;18.15;9.35;;;;;;;2.18;72.65;97041.41;5090910;28;20464;-68
2022/11/18 05:15:22;;;;;;;18.45;9.60;;;;;;;2.20;73.37;97044.66;5072679;28;20373;-68
2022/11/18 05:17:48;;;;;;;15.82;8.98;;;;;;;2.21;72.69;97046.28;5090900;28;20035;-68
2022/11/18 05:20:14;;;;;;;17.63;10.43;;;;;;;2.25;73.18;97051.91;5090255;28;20036;-68
2022/11/18 05:22:39;;;;;;;21.05;11.85;;;;;;;2.25;72.56;97055.41;5091466;28;20032;-68
2022/11/18 05:25:05;;;;;;;21.48;11.57;;;;;;;2.27;72.80;97066.78;5091211;28;20058;-68
2022/11/18 05:27:31;;;;;;;21.17;11.55;;;;;;;2.27;73.05;97055.97;5073140;28;20055;-68
2022/11/18 05:29:56;;;;;;;22.83;11.55;;;;;;;2.26;72.55;97067.88;5090335;28;20058;-68
2022/11/18 05:32:22;;;;;;;19.63;10.68;;;;;;;2.25;73.32;97068.94;5091481;28;20077;-68
2022/11/18 05:34:47;;;;;;;19.92;11.55;;;;;;;2.26;73.10;97073.28;5091075;28;20031;-69
2022/11/18 05:37:13;;;;;;;17.15;9.88;;;;;;;2.25;72.49;97068.94;5090790;28;20034;-68
2022/11/18 05:39:38;;;;;;;18.10;9.43;;;;;;;2.25;72.80;97070.84;5090170;28;20032;-68
2022/11/18 05:44:50;;;;;;;15.10;8.73;;;;;;;2.24;73.10;97078.19;5091328;28;20063;-68
2022/11/18 05:47:16;;;;;;;13.52;7.68;;;;;;;2.20;72.54;97072.50;5090659;28;20549;-68
2022/11/18 05:49:41;;;;;;;13.45;8.38;;;;;;;2.17;73.14;97080.38;5072070;28;20035;-68
2022/11/18 05:52:07;;;;;;;14.65;9.23;;;;;;;2.15;72.70;97079.81;5090745;28;20078;-68
2022/11/18 05:54:32;;;;;;;12.60;7.95;;;;;;;2.12;72.38;97085.78;5091337;28;20529;-68
2022/11/18 05:56:58;;;;;;;14.07;8.88;;;;;;;2.08;72.21;97088.22;5091944;28;20396;-68
2022/11/18 05:59:23;;;;;;;14.45;9.30;;;;;;;2.10;73.20;97094.16;5090466;28;20384;-68
2022/11/18 06:02:00;;;;;;;12.25;8.13;;;;;;;2.07;72.43;97095.53;5090659;28;20027;-68
2022/11/18 06:04:31;;;;;;;12.50;7.38;;;;;;;2.08;72.49;97086.34;5090559;28;20032;-68
2022/11/18 06:07:04;;;;;;;12.60;8.15;;;;;;;2.07;72.50;97086.59;5090345;28;20030;-68
2022/11/18 06:09:34;;;;;;;12.77;7.60;;;;;;;2.06;72.30;97088.50;5090069;28;20028;-68
2022/11/18 06:12:02;;;;;;;11.73;7.05;;;;;;;2.04;72.62;97095.25;5090981;28;20024;-68
2022/11/18 06:14:34;;;;;;;12.40;7.75;;;;;;;2.03;73.02;97102.56;5090841;28;20069;-68
2022/11/18 06:17:04;;;;;;;14.15;8.00;;;;;;;2.01;72.83;97107.44;5090360;28;20028;-68
2022/11/18 06:19:31;;;;;;;14.80;8.85;;;;;;;2.00;72.75;97103.13;5090196;28;20020;-68
2022/11/18 06:21:58;;;;;;;15.25;7.90;;;;;;;2.00;73.05;97103.13;5090515;28;20032;-68
2022/11/18 06:24:23;;;;;;;13.60;8.02;;;;;;;2.01;72.75;97118.25;5090756;28;20057;-68
2022/11/18 06:26:49;;;;;;;13.43;8.38;;;;;;;2.01;72.54;97123.66;5090433;28;20501;-68
2022/11/18 06:29:18;;;;;;;14.02;8.10;;;;;;;2.00;72.92;97118.53;5089702;28;20020;-68
2022/11/18 06:31:43;;;;;;;13.43;8.13;;;;;;;1.97;72.60;97116.38;5090553;28;20081;-68
2022/11/18 06:34:09;;;;;;;12.50;7.78;;;;;;;1.96;73.09;97120.97;5090646;28;20012;-69
2022/11/18 06:36:34;;;;;;;12.13;7.80;;;;;;;1.97;73.18;97124.50;5090649;28;20424;-68
2022/11/18 06:39:04;;;;;;;12.52;7.55;;;;;;;1.93;72.67;97122.34;5089551;28;20027;-68
2022/11/18 06:41:30;;;;;;;14.35;8.13;;;;;;;1.92;73.22;97119.88;5090262;28;20055;-68
2022/11/18 06:43:55;;;;;;;12.68;8.18;;;;;;;1.91;73.00;97127.19;5090105;28;20535;-68
2022/11/18 06:49:04;;;;;;;13.02;8.18;;;;;;;1.89;72.97;97134.78;5089931;28;20388;-68
2022/11/18 06:51:30;;;;;;;14.20;8.32;;;;;;;1.86;72.61;97135.31;5092265;28;20032;-69
2022/11/18 06:53:56;;;;;;;15.07;8.38;;;;;;;1.86;73.35;97138.03;5094368;28;20620;-69
2022/11/18 06:56:22;;;;;;;14.60;8.77;;;;;;;1.84;73.01;97142.88;5094546;28;20034;-69
2022/11/18 06:58:52;;;;;;;12.30;8.70;;;;;;;1.84;73.09;97134.78;5092638;28;20135;-68
2022/11/18 07:01:20;;;;;;;17.13;8.80;;;;;;;1.84;72.66;97134.78;5093950;28;20519;-68
2022/11/18 07:03:47;;;;;;;14.90;9.05;;;;;;;1.83;73.04;97135.84;5075800;28;20031;-68
2022/11/18 07:06:17;;;;;;;16.95;9.57;;;;;;;1.82;72.62;97136.94;5094181;28;20024;-68
2022/11/18 07:08:43;;;;;;;16.67;9.68;;;;;;;1.84;72.96;97139.34;5093002;28;20032;-68
2022/11/18 07:11:11;;;;;;;15.77;9.93;;;;;;;1.84;73.32;97131.25;5094397;28;20028;-68
2022/11/18 07:13:37;;;;;;;17.25;10.18;;;;;;;1.83;73.02;97129.66;5093930;28;20043;-68
2022/11/18 07:16:08;;;;;;;18.85;10.05;;;;;;;1.81;73.23;97135.31;5094180;28;20537;-68
2022/11/18 07:18:38;;;;;;;15.27;10.02;;;;;;;1.83;73.40;97129.66;5093023;28;20024;-68
2022/11/18 07:21:06;;;;;;;18.13;11.32;;;;;;;1.83;73.41;97125.03;5097833;28;20028;-68
2022/11/18 07:23:33;;;;;;;19.98;11.90;;;;;;;1.85;73.76;97122.06;5113891;28;20085;-68
2022/11/18 07:25:58;;;;;;;22.23;13.10;;;;;;;1.88;72.90;97129.63;5114151;28;20059;-68
2022/11/18 07:28:24;;;;;;;23.13;12.05;;;;;;;1.90;73.82;97139.09;5113566;28;20060;-69
2022/11/18 07:30:50;;;;;;;21.23;11.88;;;;;;;1.94;73.34;97131.25;5113736;28;20080;-68
2022/11/18 07:33:16;;;;;;;24.00;13.18;;;;;;;1.97;73.68;97136.09;5113764;28;20104;-69
2022/11/18 07:35:41;;;;;;;24.65;13.63;;;;;;;1.99;73.34;97141.25;5114567;28;20110;-68
2022/11/18 07:38:06;;;;;;;23.65;13.02;;;;;;;1.99;73.63;97133.94;5109422;28;20016;-69
2022/11/18 07:40:32;;;;;;;22.92;13.00;;;;;;;2.00;73.55;97127.44;5092942;28;20028;-69
2022/11/18 07:42:57;;;;;;;22.85;13.00;;;;;;;2.03;73.44;97126.91;5093171;28;20103;-69
2022/11/18 07:45:23;;;;;;;21.40;12.40;;;;;;;2.05;73.35;97122.03;5093367;28;20488;-69
2022/11/18 07:47:49;;;;;;;23.73;12.93;;;;;;;2.11;73.23;97124.72;5093422;28;20039;-69
2022/11/18 07:50:16;;;;;;;20.85;11.82;;;;;;;2.13;73.00;97128.78;5092286;28;20035;-69
2022/11/18 07:52:41;;;;;;;21.33;12.30;;;;;;;2.15;73.78;97123.09;5093189;28;20027;-67
2022/11/18 07:55:07;;;;;;;24.27;12.88;;;;;;;2.17;73.02;97129.06;5093349;28;20013;-68
2022/11/18 07:57:32;;;;;;;22.67;12.65;;;;;;;2.18;73.00;97127.97;5094645;28;20012;-68
2022/11/18 07:59:58;;;;;;;22.92;13.07;;;;;;;2.20;73.23;97126.59;5112514;28;20023;-68
2022/11/18 08:02:23;;;;;;;23.73;14.48;;;;;;;2.18;73.75;97127.97;5094605;28;20016;-68
2022/11/18 08:04:48;;;;;;;24.92;15.18;;;;;;;2.18;72.88;97127.97;5091705;28;20020;-68
2022/11/18 08:07:14;;;;;;;24.38;13.80;;;;;;;2.17;72.97;97137.97;5094304;28;20360;-68
2022/11/18 08:09:39;;;;;;;24.35;13.55;;;;;;;2.14;73.51;97127.69;5092400;28;20073;-69
2022/11/18 08:12:05;;;;;;;21.60;11.93;;;;;;;2.14;73.25;97140.41;5091748;28;20038;-68
2022/11/18 08:14:30;;;;;;;21.65;11.70;;;;;;;2.14;73.14;97149.31;5092839;28;20394;-69
2022/11/18 08:16:56;;;;;;;20.65;11.73;;;;;;;2.12;73.53;97156.09;5074214;28;20105;-69
2022/11/18 08:19:21;;;;;;;25.10;14.13;;;;;;;2.11;73.40;97155.28;5091607;28;20024;-69
2022/11/18 08:21:46;;;;;;;30.25;15.35;;;;;;;2.13;73.42;97158.53;5092335;28;20480;-68
2022/11/18 08:24:12;;;;;;;24.40;13.73;;;;;;;2.14;73.08;97151.22;5092749;28;20107;-69
2022/11/18 08:26:39;;;;;;;27.27;14.93;;;;;;;2.14;73.42;97156.66;5074609;28;20112;-68
2022/11/18 08:29:04;;;;;;;21.60;12.52;;;;;;;2.12;73.40;97159.59;5093120;28;20371;-69
2022/11/18 08:31:30;;;;;;;22.45;12.48;;;;;;;2.11;73.57;97157.97;5112438;28;20020;-69
2022/11/18 08:34:05;;;;;;;23.85;12.75;;;;;;;2.10;73.18;97159.06;5112916;28;20433;-69
2022/11/18 08:36:35;;;;;;;26.55;14.65;;;;;;;2.12;73.32;97162.31;5112677;28;20085;-69
2022/11/18 08:39:04;;;;;;;28.20;14.55;;;;;;;2.13;73.24;97155.03;5112478;28;20028;-69
2022/11/18 08:41:40;;;;;;;34.95;18.13;;;;;;;2.14;73.34;97160.16;5092931;28;20062;-68
2022/11/18 08:44:07;;;;;;;108.30;41.33;;;;;;;2.17;73.82;97164.22;5092565;28;20044;-69
2022/11/18 08:46:32;;;;;;;69.85;28.30;;;;;;;2.17;73.83;97161.50;5073928;28;20111;-68
2022/11/18 08:48:58;;;;;;;150.60;53.42;;;;;;;2.19;73.56;97162.03;5091464;28;20130;-68
2022/11/18 08:51:24;;;;;;;94.38;44.38;;;;;;;2.19;73.65;97160.13;5091321;28;20122;-70
2022/11/18 08:53:50;;;;;;;77.75;42.72;;;;;;;2.20;73.73;97159.06;5083491;28;20539;-67
2022/11/18 08:56:18;;;;;;;126.90;72.80;;;;;;;2.22;73.28;97154.19;5086051;28;20024;-69
2022/11/18 08:58:43;;;;;;;77.85;43.30;;;;;;;2.24;73.18;97162.03;5067164;28;20589;-68
2022/11/18 09:01:09;;;;;;;69.75;38.05;;;;;;;2.26;73.44;97178.00;5087497;28;20030;-69
2022/11/18 09:03:35;;;;;;;81.38;43.63;;;;;;;2.29;73.33;97175.53;5087877;28;20051;-69
2022/11/18 09:06:26;;;;;;;41.03;23.02;;;;;;;2.28;73.87;97173.13;5088290;28;20016;-69
2022/11/18 09:08:52;;;;;;;41.13;22.42;;;;;;;2.32;74.02;97166.88;5085336;28;20071;-68
2022/11/18 09:11:23;;;;;;;29.83;15.60;;;;;;;2.35;73.36;97170.94;5088450;28;20024;-68
2022/11/18 09:13:55;;;;;;;29.95;15.18;;;;;;;2.38;73.16;97175.81;5087634;28;20050;-69
2022/11/18 09:16:22;;;;;;;30.45;15.98;;;;;;;2.41;73.83;97179.84;5096657;28;20043;-70
2022/11/18 09:18:49;;;;;;;28.70;16.27;;;;;;;2.43;73.33;97177.69;5097126;28;20032;-67
2022/11/18 09:21:15;;;;;;;30.05;16.90;;;;;;;2.44;73.16;97165.75;5090095;28;20357;-69
2022/11/18 09:23:41;;;;;;;22.77;12.45;;;;;;;2.45;73.37;97176.31;5086321;28;20023;-68
2022/11/18 09:26:09;;;;;;;24.48;14.25;;;;;;;2.44;73.79;97171.19;5089553;28;20025;-68
2022/11/18 09:28:35;;;;;;;21.70;12.20;;;;;;;2.41;73.65;97167.13;5089179;28;20109;-68
2022/11/18 09:31:06;;;;;;;22.85;13.07;;;;;;;2.43;73.88;97156.84;5089517;28;20016;-67
2022/11/18 09:33:32;;;;;;;20.50;11.77;;;;;;;2.44;73.04;97165.75;5089329;28;20020;-68
2022/11/18 09:35:58;;;;;;;22.48;13.13;;;;;;;2.42;73.06;97165.22;5089130;28;20382;-68
2022/11/18 09:38:23;;;;;;;20.50;12.07;;;;;;;2.42;72.91;97171.47;5088540;28;20034;-67
2022/11/18 09:40:54;;;;;;;19.08;11.35;;;;;;;2.43;73.43;97174.97;5089033;28;20028;-68
2022/11/18 09:43:48;;;;;;;20.08;12.63;;;;;;;2.42;73.43;97178.75;5088680;28;20477;-68
2022/11/18 09:47:00;;;;;;;22.05;11.95;;;;;;;2.44;73.69;97182.00;5075358;28;20044;-67
2022/11/18 09:49:29;;;;;;;19.40;10.93;;;;;;;2.44;72.90;97184.72;5053603;28;20113;-68
2022/11/18 09:51:56;;;;;;;19.57;10.53;;;;;;;2.43;73.29;97186.63;5088588;28;20020;-68
2022/11/18 09:54:24;;;;;;;19.60;10.90;;;;;;;2.44;73.91;97177.41;5089198;28;20085;-68
2022/11/18 09:56:52;;;;;;;18.02;10.43;;;;;;;2.45;73.67;97183.63;5088385;28;20031;-68
2022/11/18 09:59:21;;;;;;;17.95;9.90;;;;;;;2.45;73.30;97183.63;5089854;28;20504;-68
2022/11/18 10:01:49;;;;;;;18.50;10.32;;;;;;;2.42;73.18;97182.28;5089059;28;20077;-68
2022/11/18 10:04:17;;;;;;;21.17;11.63;;;;;;;2.38;73.30;97192.84;5088650;28;20066;-69
2022/11/18 10:06:44;;;;;;;20.38;11.45;;;;;;;2.38;72.79;97189.34;5086858;28;20051;-67
2022/11/18 10:09:26;;;;;;;23.92;14.40;;;;;;;2.37;72.89;97185.00;5081834;28;20035;-68
2022/11/18 10:12:01;;;;;;;23.85;14.23;;;;;;;2.40;73.61;97175.50;5088442;28;20024;-67
2022/11/18 10:15:16;;;;;;;23.02;13.85;;;;;;;2.41;73.25;97177.97;5087048;28;20028;-67
2022/11/18 10:17:46;;;;;;;21.08;12.02;;;;;;;2.46;73.59;97182.53;5099520;28;20148;-68
2022/11/18 10:20:43;;;;;;;25.13;14.10;;;;;;;2.44;73.68;97190.94;5089693;28;20137;-67
2022/11/18 10:23:19;;;;;;;24.88;12.90;;;;;;;2.44;72.67;97182.00;5087991;28;20473;-67
2022/11/18 10:25:45;;;;;;;71.75;34.10;;;;;;;2.43;73.15;97180.38;5088142;28;20027;-68
2022/11/18 10:28:22;;;;;;;87.75;38.25;;;;;;;2.41;73.40;97185.25;5090976;28;20043;-68
2022/11/18 10:30:48;;;;;;;156.63;67.10;;;;;;;2.41;72.79;97185.25;5092367;28;20032;-67
2022/11/18 10:33:18;;;;;;;221.73;90.55;;;;;;;2.38;72.84;97192.03;5091251;28;21370;-67
2022/11/18 10:35:43;;;;;;;129.73;54.78;;;;;;;2.37;73.31;97201.25;5090242;28;20056;-67
2022/11/18 10:38:12;;;;;;;107.68;44.38;;;;;;;2.34;73.28;97194.47;5092209;28;20052;-66
2022/11/18 10:40:59;;;;;;;79.10;32.60;;;;;;;2.32;72.94;97198.53;5092608;28;20027;-67
2022/11/18 10:43:47;;;;;;;54.92;23.40;;;;;;;2.28;73.12;97195.56;5091421;28;20737;-69
2022/11/18 10:46:25;;;;;;;130.88;50.72;;;;;;;2.26;73.15;97208.53;5074146;28;20385;-68
2022/11/18 10:49:09;;;;;;;164.23;59.00;;;;;;;2.21;72.53;97197.75;5097940;28;20024;-68
2022/11/18 10:51:48;;;;;;;71.05;31.25;;;;;;;2.18;72.56;97192.88;5099932;28;20032;-68
2022/11/18 10:54:22;;;;;;;52.75;25.25;;;;;;;2.17;73.38;97191.25;5076114;28;20028;-69
2022/11/18 10:56:51;;;;;;;39.83;21.60;;;;;;;2.16;73.25;97193.16;5093998;28;20020;-69
2022/11/18 10:59:30;;;;;;;34.25;17.85;;;;;;;2.13;72.95;97184.78;5093497;28;20077;-68
2022/11/18 11:02:06;;;;;;;43.97;20.95;;;;;;;2.08;72.88;97197.22;5094264;28;20484;-67
2022/11/18 11:04:32;;;;;;;33.53;16.50;;;;;;;2.08;72.33;97205.34;5093857;28;20032;-68
2022/11/18 11:06:58;;;;;;;34.45;16.35;;;;;;;2.04;72.54;97198.84;5091626;28;20077;-68
2022/11/18 11:09:23;;;;;;;28.77;16.45;;;;;;;2.01;72.23;97204.00;5091664;28;20020;-68
2022/11/18 11:12:02;;;;;;;31.20;19.70;;;;;;;1.93;72.29;97208.03;5093474;28;20024;-68
2022/11/18 11:14:33;;;;;;;35.95;18.33;;;;;;;1.91;72.31;97202.09;5093440;28;20028;-68
2022/11/18 11:17:12;;;;;;;28.38;15.70;;;;;;;1.89;72.54;97194.25;5092989;28;20077;-67
2022/11/18 11:19:41;;;;;;;33.25;17.15;;;;;;;1.84;72.13;97204.25;5092605;28;20023;-66
2022/11/18 11:22:16;;;;;;;38.38;22.35;;;;;;;1.82;72.67;97190.22;5093961;28;20050;-67
2022/11/18 11:24:42;;;;;;;41.10;26.48;;;;;;;1.82;73.12;97192.91;5093837;28;20063;-67
2022/11/18 11:27:25;;;;;;;42.13;25.05;;;;;;;1.77;72.37;97188.31;5093224;28;20032;-67
2022/11/18 11:30:08;;;;;;;36.67;21.98;;;;;;;1.77;72.73;97191.00;5092891;28;20480;-67
2022/11/18 11:32:37;;;;;;;74.78;42.80;;;;;;;1.76;72.67;97184.81;5093637;28;20028;-67
2022/11/18 11:35:31;;;;;;;67.93;35.15;;;;;;;1.75;72.86;97196.69;5093641;28;20400;-67
2022/11/18 11:37:59;;;;;;;40.67;22.33;;;;;;;1.74;72.39;97188.84;5074840;28;20069;-69
2022/11/18 11:40:39;;;;;;;47.13;24.42;;;;;;;1.70;72.42;97193.16;5092620;28;20600;-68
2022/11/18 11:43:20;;;;;;;36.70;19.27;;;;;;;1.68;72.96;97193.44;5075286;28;20384;-69
2022/11/18 11:45:56;;;;;;;33.85;17.30;;;;;;;1.65;72.89;97180.47;5093293;28;20051;-68
2022/11/18 11:48:21;;;;;;;33.90;17.80;;;;;;;1.63;72.88;97188.03;5092418;28;20058;-68